Time;durP1;ratioP1;P1;durP2;ratioP2;P2;SDS_P1;SDS_P2;PMS_P1;PMS_P2;Temp;Humidity;BMP_temperature;BMP_pressure;BME280_temperature;BME280_humidity;BME280_pressure;Samples;Min_cycle;Max_cycle;Signal;HPM_P1;HPM_P2
2023/02/06 00:00:29;;;;;;;18.37;4.67;;;;;;;;;;5004255;28;20521;-70
2023/02/06 00:02:54;;;;;;;20.47;5.23;;;;;;;;;;5001463;28;20194;-70
2023/02/06 00:05:19;;;;;;;21.67;4.67;;;;;;;;;;4997551;28;20191;-70
2023/02/06 00:07:44;;;;;;;26.10;5.77;;;;;;;;;;5003506;28;20282;-70
2023/02/06 00:10:09;;;;;;;22.60;6.23;;;;;;;;;;5016527;28;20611;-70
2023/02/06 00:12:35;;;;;;;21.97;4.97;;;;;;;;;;5014748;28;20178;-70
2023/02/06 00:15:00;;;;;;;21.00;6.23;;;;;;;;;;5016596;28;20190;-71
2023/02/06 00:17:25;;;;;;;22.43;5.20;;;;;;;;;;5010124;28;20203;-71
2023/02/06 00:19:50;;;;;;;25.40;6.00;;;;;;;;;;5003083;28;20563;-70
2023/02/06 00:22:15;;;;;;;17.80;3.97;;;;;;;;;;5009781;28;20175;-70
2023/02/06 00:24:41;;;;;;;24.47;5.27;;;;;;;;;;5012728;28;20653;-71
2023/02/06 00:27:06;;;;;;;26.67;4.83;;;;;;;;;;5010825;28;20214;-71
2023/02/06 00:29:32;;;;;;;19.87;4.87;;;;;;;;;;5012210;28;20183;-70
2023/02/06 00:31:57;;;;;;;23.63;5.37;;;;;;;;;;5012233;28;20171;-70
2023/02/06 00:34:22;;;;;;;15.20;5.00;;;;;;;;;;5012204;28;20187;-70
2023/02/06 00:36:47;;;;;;;24.40;4.83;;;;;;;;;;5005190;28;20199;-70
2023/02/06 00:39:12;;;;;;;21.37;4.63;;;;;;;;;;5010043;28;20229;-70
2023/02/06 00:41:38;;;;;;;24.20;6.00;;;;;;;;;;5015697;28;20189;-70
2023/02/06 00:44:03;;;;;;;23.83;4.90;;;;;;;;;;5012444;28;20178;-71
2023/02/06 00:46:28;;;;;;;23.43;4.40;;;;;;;;;;5013079;28;20618;-70
2023/02/06 00:48:53;;;;;;;17.67;4.83;;;;;;;;;;5009813;28;20193;-70
2023/02/06 00:51:19;;;;;;;21.27;4.30;;;;;;;;;;5009022;28;20651;-70
2023/02/06 00:53:44;;;;;;;17.00;4.73;;;;;;;;;;5019162;28;20183;-70
2023/02/06 00:56:09;;;;;;;22.97;4.70;;;;;;;;;;4999272;28;20759;-70
2023/02/06 00:58:34;;;;;;;26.03;5.17;;;;;;;;;;4994580;28;20190;-69
2023/02/06 01:00:59;;;;;;;20.63;4.83;;;;;;;;;;4993268;28;20180;-70
2023/02/06 01:03:25;;;;;;;26.73;4.27;;;;;;;;;;4995903;28;20246;-70
2023/02/06 01:05:50;;;;;;;17.70;4.90;;;;;;;;;;4992231;28;20183;-70
2023/02/06 01:08:15;;;;;;;20.93;4.17;;;;;;;;;;4992510;28;20196;-70
2023/02/06 01:10:41;;;;;;;22.47;4.53;;;;;;;;;;4994593;28;20199;-69
2023/02/06 01:13:06;;;;;;;15.63;4.00;;;;;;;;;;4991021;28;20186;-69
2023/02/06 01:15:31;;;;;;;12.47;3.13;;;;;;;;;;4992944;28;20214;-69
2023/02/06 01:17:57;;;;;;;19.73;4.13;;;;;;;;;;4994598;28;20204;-70
2023/02/06 01:20:22;;;;;;;13.57;3.90;;;;;;;;;;4988156;28;20186;-70
2023/02/06 01:22:48;;;;;;;16.60;4.53;;;;;;;;;;5009365;28;20661;-70
2023/02/06 01:25:13;;;;;;;21.43;4.63;;;;;;;;;;5010276;28;20175;-70
2023/02/06 01:27:38;;;;;;;16.27;4.17;;;;;;;;;;5011737;28;20222;-70
2023/02/06 01:30:04;;;;;;;24.87;5.93;;;;;;;;;;5009207;28;20264;-70
2023/02/06 01:32:30;;;;;;;16.43;4.07;;;;;;;;;;5012128;28;20273;-70
2023/02/06 01:34:55;;;;;;;14.87;3.07;;;;;;;;;;5016059;28;20294;-70
2023/02/06 01:37:20;;;;;;;22.80;4.50;;;;;;;;;;5011896;28;20197;-69
2023/02/06 01:39:45;;;;;;;21.80;4.53;;;;;;;;;;5014469;28;20175;-70
2023/02/06 01:42:11;;;;;;;18.27;3.40;;;;;;;;;;5006589;28;20270;-69
2023/02/06 01:44:37;;;;;;;22.83;4.10;;;;;;;;;;5007972;28;20597;-70
2023/02/06 01:47:02;;;;;;;24.13;7.00;;;;;;;;;;5002147;28;20254;-70
2023/02/06 01:49:30;;;;;;;18.87;4.50;;;;;;;;;;5013522;28;20175;-70
2023/02/06 01:52:06;;;;;;;16.90;4.40;;;;;;;;;;5014585;28;20269;-70
2023/02/06 01:54:31;;;;;;;18.73;3.50;;;;;;;;;;5011710;28;20285;-70
2023/02/06 01:57:00;;;;;;;17.67;4.83;;;;;;;;;;4995227;28;20752;-70
2023/02/06 01:59:25;;;;;;;22.07;4.50;;;;;;;;;;4995681;28;20204;-70
2023/02/06 02:01:50;;;;;;;16.87;3.40;;;;;;;;;;5009292;28;20198;-70
2023/02/06 02:04:17;;;;;;;14.33;3.80;;;;;;;;;;5003138;28;20291;-69
2023/02/06 02:06:45;;;;;;;12.23;3.70;;;;;;;;;;4996516;28;20201;-70
2023/02/06 02:09:10;;;;;;;13.43;3.13;;;;;;;;;;5004213;28;20558;-70
2023/02/06 02:11:36;;;;;;;14.23;3.53;;;;;;;;;;4996100;28;20266;-70
2023/02/06 02:14:03;;;;;;;17.90;3.73;;;;;;;;;;4997331;28;20650;-70
2023/02/06 02:16:34;;;;;;;19.30;3.60;;;;;;;;;;5000662;28;20191;-70
2023/02/06 02:19:18;;;;;;;22.73;3.97;;;;;;;;;;4995727;28;20294;-70
2023/02/06 02:22:09;;;;;;;11.90;3.43;;;;;;;;;;4995868;28;20210;-70
2023/02/06 02:25:06;;;;;;;13.87;3.60;;;;;;;;;;4995791;28;20187;-70
2023/02/06 02:27:42;;;;;;;14.70;3.57;;;;;;;;;;4989924;28;20231;-70
2023/02/06 02:30:09;;;;;;;21.93;4.10;;;;;;;;;;5011740;28;20215;-70
2023/02/06 02:32:46;;;;;;;19.77;3.50;;;;;;;;;;5015256;28;20809;-70
2023/02/06 02:35:12;;;;;;;17.33;3.33;;;;;;;;;;5008892;28;20206;-70
2023/02/06 02:37:46;;;;;;;12.50;3.07;;;;;;;;;;5006231;28;20206;-70
2023/02/06 02:40:20;;;;;;;13.37;2.97;;;;;;;;;;5023768;28;20185;-70
2023/02/06 02:42:51;;;;;;;11.10;3.23;;;;;;;;;;5013159;28;20240;-70
2023/02/06 02:45:35;;;;;;;12.20;3.23;;;;;;;;;;5013811;28;20346;-70
2023/02/06 02:48:13;;;;;;;15.30;3.17;;;;;;;;;;5007054;28;20700;-70
2023/02/06 02:50:39;;;;;;;17.20;3.50;;;;;;;;;;5000683;28;20182;-70
2023/02/06 02:53:04;;;;;;;15.83;4.17;;;;;;;;;;5017649;28;20198;-69
2023/02/06 02:55:30;;;;;;;13.97;3.30;;;;;;;;;;5000355;28;20677;-70
2023/02/06 02:58:00;;;;;;;20.73;3.40;;;;;;;;;;4995818;28;20206;-70
2023/02/06 03:00:25;;;;;;;14.93;3.77;;;;;;;;;;4992870;28;20283;-70
2023/02/06 03:02:51;;;;;;;17.50;5.00;;;;;;;;;;4998616;28;20262;-70
2023/02/06 03:05:19;;;;;;;11.60;3.60;;;;;;;;;;4995459;28;20214;-70
2023/02/06 03:07:53;;;;;;;20.90;4.20;;;;;;;;;;4993016;28;20214;-70
2023/02/06 03:10:37;;;;;;;17.47;4.77;;;;;;;;;;4997724;28;20711;-70
2023/02/06 03:13:08;;;;;;;13.60;3.40;;;;;;;;;;4994860;28;20187;-71
2023/02/06 03:15:37;;;;;;;11.83;3.00;;;;;;;;;;4995707;28;20225;-71
2023/02/06 03:18:05;;;;;;;18.70;4.43;;;;;;;;;;5004795;28;20203;-71
2023/02/06 03:20:30;;;;;;;20.67;6.23;;;;;;;;;;4997692;28;20238;-71
2023/02/06 03:22:56;;;;;;;22.83;4.77;;;;;;;;;;4994837;28;20183;-71
2023/02/06 03:25:25;;;;;;;14.13;4.10;;;;;;;;;;5002090;28;20241;-71
2023/02/06 03:27:51;;;;;;;15.90;3.87;;;;;;;;;;5012388;28;20229;-70
2023/02/06 03:30:18;;;;;;;24.57;5.30;;;;;;;;;;5014877;28;20273;-70
2023/02/06 03:32:46;;;;;;;22.87;5.70;;;;;;;;;;5012603;28;20186;-70
2023/02/06 03:35:12;;;;;;;15.43;4.57;;;;;;;;;;5009459;28;20219;-69
2023/02/06 03:37:38;;;;;;;16.03;4.57;;;;;;;;;;5018556;28;20206;-70
2023/02/06 03:40:04;;;;;;;22.27;3.97;;;;;;;;;;5018426;28;20178;-70
2023/02/06 03:42:31;;;;;;;24.33;4.60;;;;;;;;;;4999248;28;20186;-70
2023/02/06 03:44:58;;;;;;;18.17;5.10;;;;;;;;;;4996243;28;20238;-70
2023/02/06 03:47:25;;;;;;;11.33;3.87;;;;;;;;;;4998512;28;20199;-70
2023/02/06 03:49:51;;;;;;;16.97;5.07;;;;;;;;;;5015166;28;20191;-70
2023/02/06 03:52:19;;;;;;;15.83;4.13;;;;;;;;;;5021293;28;20186;-70
2023/02/06 03:54:47;;;;;;;16.77;4.70;;;;;;;;;;5014705;28;20835;-70
2023/02/06 03:57:18;;;;;;;22.83;4.10;;;;;;;;;;5021266;28;20281;-70
2023/02/06 03:59:43;;;;;;;25.47;6.23;;;;;;;;;;5011814;28;20190;-70
2023/02/06 04:02:08;;;;;;;11.07;3.17;;;;;;;;;;5012606;28;20476;-70
2023/02/06 04:04:35;;;;;;;18.83;4.63;;;;;;;;;;5016298;28;20532;-70
2023/02/06 04:07:04;;;;;;;21.03;5.30;;;;;;;;;;5012348;28;20235;-70
2023/02/06 04:09:29;;;;;;;14.87;5.70;;;;;;;;;;5005621;28;20187;-70
2023/02/06 04:11:54;;;;;;;19.30;4.50;;;;;;;;;;5006692;28;20179;-70
2023/02/06 04:14:20;;;;;;;19.37;6.40;;;;;;;;;;5010398;28;20230;-70
2023/02/06 04:16:45;;;;;;;19.53;4.70;;;;;;;;;;5010421;28;20590;-70
2023/02/06 04:19:10;;;;;;;11.80;4.13;;;;;;;;;;5011079;28;20652;-70
2023/02/06 04:21:35;;;;;;;13.27;4.37;;;;;;;;;;5013255;28;20220;-69
2023/02/06 04:24:00;;;;;;;26.27;4.90;;;;;;;;;;5009075;28;20172;-70
2023/02/06 04:26:25;;;;;;;15.07;4.27;;;;;;;;;;5002921;28;20187;-70
2023/02/06 04:28:51;;;;;;;19.17;4.47;;;;;;;;;;5013497;28;20539;-70
2023/02/06 04:31:16;;;;;;;16.30;5.20;;;;;;;;;;5009249;28;20197;-70
2023/02/06 04:33:41;;;;;;;23.60;5.80;;;;;;;;;;5009977;28;20644;-70
2023/02/06 04:36:06;;;;;;;23.20;4.93;;;;;;;;;;5011097;28;20226;-70
2023/02/06 04:38:32;;;;;;;12.70;3.93;;;;;;;;;;5012721;28;20289;-70
2023/02/06 04:41:01;;;;;;;19.80;4.63;;;;;;;;;;5008316;28;20286;-70
2023/02/06 04:43:26;;;;;;;18.30;4.23;;;;;;;;;;5011322;28;20179;-70
2023/02/06 04:45:51;;;;;;;20.23;5.47;;;;;;;;;;5007541;28;20602;-70
2023/02/06 04:48:16;;;;;;;10.77;3.23;;;;;;;;;;5003405;28;20209;-70
2023/02/06 04:50:41;;;;;;;17.40;4.17;;;;;;;;;;5008540;28;20180;-70
2023/02/06 04:53:07;;;;;;;15.97;4.13;;;;;;;;;;5011498;28;20183;-70
2023/02/06 04:55:33;;;;;;;16.87;3.93;;;;;;;;;;5010866;28;20207;-70
2023/02/06 04:57:58;;;;;;;21.23;5.83;;;;;;;;;;5011551;28;20198;-70
2023/02/06 05:00:23;;;;;;;22.37;5.17;;;;;;;;;;5015160;28;20179;-70
2023/02/06 05:02:49;;;;;;;17.83;4.77;;;;;;;;;;5013554;28;20186;-70
2023/02/06 05:05:14;;;;;;;16.80;5.00;;;;;;;;;;5012991;28;20183;-70
2023/02/06 05:07:39;;;;;;;13.37;4.57;;;;;;;;;;5008550;28;20257;-70
2023/02/06 05:10:04;;;;;;;16.90;4.80;;;;;;;;;;5012377;28;20920;-70
2023/02/06 05:12:30;;;;;;;27.37;6.00;;;;;;;;;;5006498;28;20179;-70
2023/02/06 05:14:55;;;;;;;15.57;6.47;;;;;;;;;;5006327;28;20209;-70
2023/02/06 05:17:20;;;;;;;16.53;4.80;;;;;;;;;;5008588;28;20209;-70
2023/02/06 05:19:45;;;;;;;24.20;5.33;;;;;;;;;;5012679;28;20197;-70
2023/02/06 05:22:11;;;;;;;23.33;6.00;;;;;;;;;;5003412;28;21696;-70
2023/02/06 05:24:36;;;;;;;11.97;4.70;;;;;;;;;;5013437;28;20206;-70
2023/02/06 05:27:01;;;;;;;13.40;4.87;;;;;;;;;;5004897;28;20309;-70
2023/02/06 05:29:26;;;;;;;23.53;5.20;;;;;;;;;;5013524;28;20182;-70
2023/02/06 05:31:52;;;;;;;16.57;5.30;;;;;;;;;;5017618;28;20272;-71
2023/02/06 05:34:17;;;;;;;19.23;6.20;;;;;;;;;;5013896;28;20186;-70
2023/02/06 05:36:42;;;;;;;22.43;5.70;;;;;;;;;;5009900;28;20743;-70
2023/02/06 05:39:07;;;;;;;18.70;5.43;;;;;;;;;;5015296;28;20661;-70
2023/02/06 05:41:33;;;;;;;24.03;6.33;;;;;;;;;;5010232;28;20158;-70
2023/02/06 05:43:58;;;;;;;17.60;5.47;;;;;;;;;;5005540;28;20267;-70
2023/02/06 05:46:23;;;;;;;18.47;4.90;;;;;;;;;;5008939;28;20178;-70
2023/02/06 05:48:48;;;;;;;12.90;5.60;;;;;;;;;;5010101;28;20938;-70
2023/02/06 05:51:14;;;;;;;15.97;6.33;;;;;;;;;;4995385;28;20191;-70
2023/02/06 05:53:39;;;;;;;21.50;4.77;;;;;;;;;;5005195;28;20191;-70
2023/02/06 05:56:04;;;;;;;17.43;4.93;;;;;;;;;;5000502;28;20286;-70
2023/02/06 05:58:30;;;;;;;16.80;5.13;;;;;;;;;;4996541;28;20198;-72
2023/02/06 06:00:55;;;;;;;23.60;4.97;;;;;;;;;;4998419;28;20225;-70
2023/02/06 06:03:20;;;;;;;15.47;5.27;;;;;;;;;;4998674;28;20197;-70
2023/02/06 06:05:45;;;;;;;13.47;4.30;;;;;;;;;;4999155;28;20187;-70
2023/02/06 06:08:11;;;;;;;16.27;5.20;;;;;;;;;;4994279;28;20204;-70
2023/02/06 06:10:36;;;;;;;16.30;4.67;;;;;;;;;;4999302;28;22010;-70
2023/02/06 06:13:01;;;;;;;14.53;5.30;;;;;;;;;;4997217;28;20226;-70
2023/02/06 06:15:26;;;;;;;18.93;4.83;;;;;;;;;;5000462;28;20235;-70
2023/02/06 06:17:51;;;;;;;14.47;5.23;;;;;;;;;;5015587;28;20197;-70
2023/02/06 06:20:17;;;;;;;23.73;5.90;;;;;;;;;;5013171;28;20167;-70
2023/02/06 06:22:42;;;;;;;14.47;4.77;;;;;;;;;;5014791;28;20190;-70
2023/02/06 06:25:07;;;;;;;23.57;5.10;;;;;;;;;;5016214;28;20222;-70
2023/02/06 06:27:32;;;;;;;17.53;5.03;;;;;;;;;;5010020;28;20221;-70
2023/02/06 06:29:57;;;;;;;22.40;5.57;;;;;;;;;;5011551;28;20847;-72
2023/02/06 06:32:23;;;;;;;25.43;6.00;;;;;;;;;;5018650;28;20174;-70
2023/02/06 06:34:48;;;;;;;18.70;5.27;;;;;;;;;;5013175;28;20205;-70
2023/02/06 06:37:13;;;;;;;24.80;5.33;;;;;;;;;;5008380;28;20211;-70
2023/02/06 06:39:38;;;;;;;21.60;5.87;;;;;;;;;;5018255;28;20212;-70
2023/02/06 06:42:03;;;;;;;19.07;5.53;;;;;;;;;;5009778;28;20294;-70
2023/02/06 06:44:29;;;;;;;20.47;5.03;;;;;;;;;;5002143;28;20502;-70
2023/02/06 06:46:54;;;;;;;17.50;5.27;;;;;;;;;;5004565;28;20182;-70
2023/02/06 06:49:20;;;;;;;15.23;5.13;;;;;;;;;;5020596;28;20206;-70
2023/02/06 06:51:45;;;;;;;21.20;5.20;;;;;;;;;;5015516;28;20175;-70
2023/02/06 06:54:10;;;;;;;33.43;5.73;;;;;;;;;;5006939;28;20563;-69
2023/02/06 06:56:35;;;;;;;13.57;5.93;;;;;;;;;;5018663;28;20195;-70
2023/02/06 06:59:00;;;;;;;21.13;6.63;;;;;;;;;;5020217;28;20175;-70
2023/02/06 07:01:26;;;;;;;23.13;6.77;;;;;;;;;;4998941;28;20230;-70
2023/02/06 07:03:51;;;;;;;16.40;5.10;;;;;;;;;;5014420;28;20193;-70
2023/02/06 07:06:16;;;;;;;21.17;5.67;;;;;;;;;;5006444;28;20186;-70
2023/02/06 07:08:42;;;;;;;19.87;5.20;;;;;;;;;;5011775;28;20186;-70
2023/02/06 07:11:08;;;;;;;18.77;5.10;;;;;;;;;;5014968;28;20174;-70
2023/02/06 07:13:33;;;;;;;20.40;6.43;;;;;;;;;;5014954;28;20175;-71
2023/02/06 07:15:58;;;;;;;14.93;5.33;;;;;;;;;;5008556;28;20281;-71
2023/02/06 07:18:24;;;;;;;18.10;6.20;;;;;;;;;;4997277;28;20278;-71
2023/02/06 07:20:50;;;;;;;16.97;6.10;;;;;;;;;;4995094;28;20175;-71
2023/02/06 07:23:15;;;;;;;25.63;6.93;;;;;;;;;;4993844;28;20908;-69
2023/02/06 07:25:40;;;;;;;13.33;5.20;;;;;;;;;;4997076;28;20179;-69
2023/02/06 07:28:06;;;;;;;19.40;5.77;;;;;;;;;;4997704;28;20234;-71
2023/02/06 07:30:31;;;;;;;18.37;6.10;;;;;;;;;;4997974;28;20183;-71
2023/02/06 07:32:56;;;;;;;15.97;5.37;;;;;;;;;;5009091;28;20193;-71
2023/02/06 07:35:21;;;;;;;27.53;5.67;;;;;;;;;;5004408;28;20207;-71
2023/02/06 07:37:46;;;;;;;21.03;5.50;;;;;;;;;;4995834;28;20202;-71
2023/02/06 07:40:11;;;;;;;16.80;5.80;;;;;;;;;;4996296;28;20171;-71
2023/02/06 07:42:38;;;;;;;25.73;6.30;;;;;;;;;;4997495;28;20276;-71
2023/02/06 07:45:03;;;;;;;25.07;6.77;;;;;;;;;;5013308;28;20545;-71
2023/02/06 07:47:28;;;;;;;20.57;7.47;;;;;;;;;;5013432;28;20202;-71
2023/02/06 07:49:53;;;;;;;24.07;6.40;;;;;;;;;;5013445;28;20182;-71
2023/02/06 07:52:21;;;;;;;21.50;6.60;;;;;;;;;;5008955;28;20270;-70
2023/02/06 07:54:46;;;;;;;18.80;5.63;;;;;;;;;;5013071;28;20278;-71
2023/02/06 07:57:11;;;;;;;16.63;6.40;;;;;;;;;;5012450;28;20282;-71
2023/02/06 07:59:36;;;;;;;23.40;5.93;;;;;;;;;;5011808;28;20245;-71
2023/02/06 08:02:02;;;;;;;24.37;7.20;;;;;;;;;;4997758;28;20239;-71
2023/02/06 08:04:33;;;;;;;21.17;6.83;;;;;;;;;;5011378;28;20205;-71
2023/02/06 08:06:59;;;;;;;25.87;6.40;;;;;;;;;;5013804;28;20285;-71
2023/02/06 08:09:24;;;;;;;25.83;7.00;;;;;;;;;;5013465;28;20257;-69
2023/02/06 08:11:49;;;;;;;20.13;7.30;;;;;;;;;;5013854;28;20175;-72
2023/02/06 08:14:14;;;;;;;14.20;6.50;;;;;;;;;;5010272;28;20184;-70
2023/02/06 08:16:39;;;;;;;20.50;6.23;;;;;;;;;;5006626;28;20197;-70
2023/02/06 08:19:09;;;;;;;18.37;6.77;;;;;;;;;;5011187;28;20175;-70
2023/02/06 08:21:35;;;;;;;17.97;7.37;;;;;;;;;;5012680;28;20167;-70
2023/02/06 08:24:00;;;;;;;24.67;7.57;;;;;;;;;;5029435;28;20225;-69
2023/02/06 08:26:26;;;;;;;17.50;6.63;;;;;;;;;;5014944;28;20171;-70
2023/02/06 08:28:52;;;;;;;16.00;6.80;;;;;;;;;;5002230;28;20190;-69
2023/02/06 08:31:22;;;;;;;14.13;6.27;;;;;;;;;;5000546;28;20188;-70
2023/02/06 08:33:48;;;;;;;29.50;7.07;;;;;;;;;;5006405;28;20182;-70
2023/02/06 08:36:13;;;;;;;24.13;6.40;;;;;;;;;;5007558;28;20208;-70
2023/02/06 08:38:39;;;;;;;22.23;6.17;;;;;;;;;;5011666;28;20236;-70
2023/02/06 08:41:05;;;;;;;15.77;7.00;;;;;;;;;;5011850;28;20178;-72
2023/02/06 08:43:30;;;;;;;12.87;5.13;;;;;;;;;;5008066;28;20183;-71
2023/02/06 08:45:57;;;;;;;21.80;6.97;;;;;;;;;;5009190;28;20201;-70
2023/02/06 08:48:23;;;;;;;19.43;5.83;;;;;;;;;;5007515;28;20191;-71
2023/02/06 08:50:48;;;;;;;16.30;5.97;;;;;;;;;;5011128;28;20544;-71
2023/02/06 08:53:13;;;;;;;17.17;7.57;;;;;;;;;;5012807;28;20558;-70
2023/02/06 08:55:38;;;;;;;18.67;6.20;;;;;;;;;;5002775;28;20570;-71
2023/02/06 08:58:04;;;;;;;25.27;7.47;;;;;;;;;;5011656;28;20667;-71
2023/02/06 09:00:29;;;;;;;25.63;7.83;;;;;;;;;;5005231;28;20707;-71
2023/02/06 09:02:54;;;;;;;23.93;7.20;;;;;;;;;;5010854;28;20232;-71
2023/02/06 09:05:20;;;;;;;20.17;7.03;;;;;;;;;;5008785;28;20186;-71
2023/02/06 09:07:45;;;;;;;28.63;8.27;;;;;;;;;;5009369;28;20260;-71
2023/02/06 09:10:10;;;;;;;20.57;7.07;;;;;;;;;;4997799;28;20187;-71
2023/02/06 09:12:35;;;;;;;22.60;7.80;;;;;;;;;;5006958;28;20270;-71
2023/02/06 09:15:01;;;;;;;27.27;8.00;;;;;;;;;;5007850;28;20549;-71
2023/02/06 09:17:30;;;;;;;21.17;7.30;;;;;;;;;;5011313;28;20227;-71
2023/02/06 09:19:55;;;;;;;20.07;6.83;;;;;;;;;;5008023;28;20191;-71
2023/02/06 09:22:20;;;;;;;18.17;6.93;;;;;;;;;;5009274;28;20603;-71
2023/02/06 09:24:46;;;;;;;19.50;8.47;;;;;;;;;;5023645;28;20723;-71
2023/02/06 09:27:11;;;;;;;16.63;7.90;;;;;;;;;;5023271;22;20222;-71
2023/02/06 09:29:36;;;;;;;26.43;7.73;;;;;;;;;;5016318;28;20187;-71
2023/02/06 09:32:02;;;;;;;18.73;7.60;;;;;;;;;;5005258;28;20269;-72
2023/02/06 09:34:27;;;;;;;28.73;8.67;;;;;;;;;;5008438;28;20179;-72
2023/02/06 09:36:53;;;;;;;24.27;8.53;;;;;;;;;;5011731;28;20659;-71
2023/02/06 09:39:18;;;;;;;25.50;7.13;;;;;;;;;;5002962;28;20180;-72
2023/02/06 09:41:54;;;;;;;20.90;7.30;;;;;;;;;;5005205;28;20183;-71
2023/02/06 09:44:25;;;;;;;18.63;6.60;;;;;;;;;;5005341;28;20230;-71
2023/02/06 09:46:53;;;;;;;22.60;7.70;;;;;;;;;;5006712;28;20178;-71
2023/02/06 09:49:24;;;;;;;22.33;6.30;;;;;;;;;;5010191;28;20187;-71
2023/02/06 09:51:55;;;;;;;19.70;5.47;;;;;;;;;;5008981;28;20642;-72
2023/02/06 09:54:36;;;;;;;17.37;5.07;;;;;;;;;;5010550;28;20183;-71
2023/02/06 09:57:06;;;;;;;20.67;5.87;;;;;;;;;;5010368;28;20664;-71
2023/02/06 09:59:38;;;;;;;18.00;5.83;;;;;;;;;;5007252;28;20249;-71
2023/02/06 10:02:03;;;;;;;17.37;5.33;;;;;;;;;;4999869;28;20705;-72
2023/02/06 10:04:31;;;;;;;14.80;5.13;;;;;;;;;;5009220;28;20262;-72
2023/02/06 10:07:07;;;;;;;14.33;4.80;;;;;;;;;;5011482;28;20250;-72
2023/02/06 10:09:49;;;;;;;18.07;5.13;;;;;;;;;;5005468;28;20236;-73
2023/02/06 10:12:17;;;;;;;16.87;4.57;;;;;;;;;;5007177;28;20179;-72
2023/02/06 10:14:51;;;;;;;18.70;4.03;;;;;;;;;;5005878;28;20218;-72
2023/02/06 10:17:22;;;;;;;16.23;4.33;;;;;;;;;;5003927;28;20199;-72
2023/02/06 10:19:50;;;;;;;16.67;5.10;;;;;;;;;;5005557;28;20186;-72
2023/02/06 10:22:19;;;;;;;15.10;4.13;;;;;;;;;;5011997;28;20175;-72
2023/02/06 10:24:53;;;;;;;11.87;4.20;;;;;;;;;;5012723;28;20182;-72
2023/02/06 10:27:18;;;;;;;18.70;4.83;;;;;;;;;;5008483;28;20218;-72
2023/02/06 10:29:44;;;;;;;21.23;4.30;;;;;;;;;;5012315;28;20179;-72
2023/02/06 10:32:28;;;;;;;13.03;4.07;;;;;;;;;;5014330;28;20273;-73
2023/02/06 10:34:59;;;;;;;11.70;4.10;;;;;;;;;;5012044;28;20627;-72
2023/02/06 10:37:25;;;;;;;11.47;4.03;;;;;;;;;;5006604;28;20194;-72
2023/02/06 10:39:53;;;;;;;20.30;7.10;;;;;;;;;;5011415;28;20201;-72
2023/02/06 10:42:27;;;;;;;15.70;3.57;;;;;;;;;;5014447;28;20175;-72
2023/02/06 10:45:01;;;;;;;17.70;4.07;;;;;;;;;;5012093;28;20187;-72
2023/02/06 10:47:31;;;;;;;12.53;4.43;;;;;;;;;;5004997;28;20199;-73
2023/02/06 10:50:00;;;;;;;12.03;3.40;;;;;;;;;;5003844;28;20179;-72
2023/02/06 10:52:31;;;;;;;16.03;3.47;;;;;;;;;;5008133;28;20240;-73
2023/02/06 10:55:16;;;;;;;20.17;5.10;;;;;;;;;;5010685;28;20194;-72
2023/02/06 10:57:41;;;;;;;17.73;4.50;;;;;;;;;;5014736;28;20698;-72
2023/02/06 11:00:13;;;;;;;16.75;3.50;;;;;;;;;;5010102;28;20175;-73
2023/02/06 11:02:51;;;;;;;17.20;5.35;;;;;;;;;;5008467;28;20179;-73
2023/02/06 11:05:19;;;;;;;14.48;4.07;;;;;;;;;;5007092;28;20235;-72
2023/02/06 11:07:45;;;;;;;12.68;3.17;;;;;;;;;;5014036;28;20290;-73
2023/02/06 11:10:13;;;;;;;16.20;4.40;;;;;;;;;;5013217;28;20183;-72
2023/02/06 11:12:40;;;;;;;13.38;3.42;;;;;;;;;;5005336;28;20183;-72
2023/02/06 11:15:26;;;;;;;10.32;3.08;;;;;;;;;;5011910;28;20580;-72
2023/02/06 11:17:53;;;;;;;18.83;5.05;;;;;;;;;;5013370;28;20214;-72
2023/02/06 11:20:23;;;;;;;10.98;3.10;;;;;;;;;;5009705;28;20175;-72
2023/02/06 11:22:49;;;;;;;10.30;3.00;;;;;;;;;;5005305;28;20570;-72
2023/02/06 11:25:17;;;;;;;15.27;3.85;;;;;;;;;;5003309;28;20254;-72
2023/02/06 11:27:42;;;;;;;12.25;3.03;;;;;;;;;;5012161;28;20215;-72
2023/02/06 11:30:21;;;;;;;11.98;2.80;;;;;;;;;;5007136;28;20180;-72
2023/02/06 11:32:47;;;;;;;10.50;2.35;;;;;;;;;;5006871;28;20702;-72
2023/02/06 11:35:25;;;;;;;10.10;2.60;;;;;;;;;;5011339;28;20207;-72
2023/02/06 11:37:54;;;;;;;15.18;2.92;;;;;;;;;;5004038;28;20214;-72
2023/02/06 11:40:19;;;;;;;12.25;2.80;;;;;;;;;;5010030;28;20217;-72
2023/02/06 11:42:45;;;;;;;17.77;5.07;;;;;;;;;;5012049;28;20558;-72
2023/02/06 11:45:37;;;;;;;8.55;3.00;;;;;;;;;;5008442;28;20225;-72
2023/02/06 11:48:03;;;;;;;8.10;2.38;;;;;;;;;;4999775;28;20214;-72
2023/02/06 11:50:33;;;;;;;16.13;3.17;;;;;;;;;;4991951;28;20274;-72
2023/02/06 11:53:06;;;;;;;11.70;3.05;;;;;;;;;;5006677;28;20179;-72
2023/02/06 11:55:34;;;;;;;9.02;2.67;;;;;;;;;;5000234;28;20222;-72
2023/02/06 11:58:04;;;;;;;14.50;3.13;;;;;;;;;;5012670;28;20680;-72
2023/02/06 12:00:29;;;;;;;11.43;3.28;;;;;;;;;;5008092;28;20184;-72
2023/02/06 12:02:55;;;;;;;11.75;3.08;;;;;;;;;;5008855;28;20344;-70
2023/02/06 12:05:24;;;;;;;6.50;2.65;;;;;;;;;;5010453;28;20186;-71
2023/02/06 12:07:55;;;;;;;9.30;2.53;;;;;;;;;;5011300;28;20294;-71
2023/02/06 12:10:22;;;;;;;14.13;3.97;;;;;;;;;;5012092;28;20187;-71
2023/02/06 12:12:50;;;;;;;10.48;3.10;;;;;;;;;;5005922;28;20194;-71
2023/02/06 12:15:18;;;;;;;16.80;2.58;;;;;;;;;;5008245;28;20218;-71
2023/02/06 12:17:44;;;;;;;12.35;3.25;;;;;;;;;;5012106;28;20210;-71
2023/02/06 12:20:30;;;;;;;17.55;3.50;;;;;;;;;;5000934;28;20183;-71
2023/02/06 12:23:02;;;;;;;12.23;2.63;;;;;;;;;;5006272;28;20183;-71
2023/02/06 12:25:32;;;;;;;8.27;2.17;;;;;;;;;;5007796;28;20192;-71
2023/02/06 12:28:16;;;;;;;11.23;2.42;;;;;;;;;;5008950;28;20234;-71
2023/02/06 12:30:46;;;;;;;9.73;2.00;;;;;;;;;;5002726;28;20198;-71
2023/02/06 12:33:16;;;;;;;10.30;2.55;;;;;;;;;;5008263;28;20298;-71
2023/02/06 12:35:42;;;;;;;13.35;2.83;;;;;;;;;;5009239;28;20207;-72
2023/02/06 12:38:14;;;;;;;12.07;2.42;;;;;;;;;;5003243;28;20552;-72
2023/02/06 12:40:46;;;;;;;10.82;2.42;;;;;;;;;;5006254;28;20270;-72
2023/02/06 12:43:15;;;;;;;13.68;2.95;;;;;;;;;;5010335;28;20202;-72
2023/02/06 12:45:40;;;;;;;10.65;3.17;;;;;;;;;;5006903;28;20203;-72
2023/02/06 12:48:12;;;;;;;12.93;3.83;;;;;;;;;;5005944;28;20202;-72
2023/02/06 12:50:41;;;;;;;8.68;2.15;;;;;;;;;;5003058;28;20183;-72
2023/02/06 12:53:09;;;;;;;8.02;2.08;;;;;;;;;;5008798;28;20187;-72
2023/02/06 12:55:48;;;;;;;8.82;2.13;;;;;;;;;;5005379;28;20341;-72
2023/02/06 12:58:26;;;;;;;12.23;2.90;;;;;;;;;;5008272;28;20194;-72
2023/02/06 13:01:01;;;;;;;7.47;2.60;;;;;;;;;;5008410;28;20664;-72
2023/02/06 13:03:28;;;;;;;10.68;2.28;;;;;;;;;;5001324;28;20550;-72
2023/02/06 13:05:53;;;;;;;10.65;2.40;;;;;;;;;;5003743;28;20213;-72
2023/02/06 13:08:35;;;;;;;9.25;3.67;;;;;;;;;;5000613;28;20285;-72
2023/02/06 13:11:16;;;;;;;11.15;2.88;;;;;;;;;;4998147;28;20707;-72
2023/02/06 13:13:41;;;;;;;5.13;1.65;;;;;;;;;;5008384;28;20589;-72
2023/02/06 13:16:07;;;;;;;10.70;1.77;;;;;;;;;;5002447;28;20203;-72
2023/02/06 13:18:49;;;;;;;11.13;2.17;;;;;;;;;;5004067;28;20199;-72
2023/02/06 13:21:28;;;;;;;9.50;2.60;;;;;;;;;;5005998;28;20171;-72
2023/02/06 13:24:02;;;;;;;5.30;1.92;;;;;;;;;;5009994;28;20194;-72
2023/02/06 13:26:42;;;;;;;10.98;2.28;;;;;;;;;;5011977;28;20260;-72
2023/02/06 13:29:21;;;;;;;10.70;2.90;;;;;;;;;;5008915;28;20225;-72
2023/02/06 13:31:46;;;;;;;7.82;2.60;;;;;;;;;;5006652;28;20210;-72
2023/02/06 13:34:13;;;;;;;11.07;2.42;;;;;;;;;;5008513;28;20259;-72
2023/02/06 13:36:41;;;;;;;8.57;2.05;;;;;;;;;;5004579;28;20214;-72
2023/02/06 13:39:14;;;;;;;12.07;2.00;;;;;;;;;;5010581;28;20266;-72
2023/02/06 13:41:41;;;;;;;11.15;1.77;;;;;;;;;;5010449;28;20230;-72
2023/02/06 13:44:21;;;;;;;8.10;1.92;;;;;;;;;;5009569;28;20178;-72
2023/02/06 13:47:02;;;;;;;8.43;2.20;;;;;;;;;;5005391;28;20253;-72
2023/02/06 13:49:40;;;;;;;9.88;1.83;;;;;;;;;;5006767;28;20608;-72
2023/02/06 13:52:26;;;;;;;12.95;2.05;;;;;;;;;;5000292;28;20187;-72
2023/02/06 13:54:57;;;;;;;11.20;2.08;;;;;;;;;;5004858;28;20210;-72
2023/02/06 13:57:25;;;;;;;7.82;1.77;;;;;;;;;;5005290;28;20681;-72
2023/02/06 13:59:53;;;;;;;9.45;2.28;;;;;;;;;;5010463;28;20185;-72
2023/02/06 14:02:26;;;;;;;8.05;2.10;;;;;;;;;;5014296;28;20171;-72
2023/02/06 14:04:51;;;;;;;14.27;2.00;;;;;;;;;;5010716;28;20205;-72
2023/02/06 14:07:35;;;;;;;8.48;1.88;;;;;;;;;;5012311;28;20752;-73
2023/02/06 14:10:04;;;;;;;9.52;2.28;;;;;;;;;;5003889;28;20180;-72
2023/02/06 14:12:38;;;;;;;9.02;1.70;;;;;;;;;;5007285;28;20176;-72
2023/02/06 14:15:21;;;;;;;8.18;1.67;;;;;;;;;;5015075;28;20203;-70
2023/02/06 14:17:46;;;;;;;5.55;1.58;;;;;;;;;;5012638;28;20206;-72
2023/02/06 14:20:24;;;;;;;9.25;2.00;;;;;;;;;;5013787;28;20183;-72
2023/02/06 14:22:56;;;;;;;13.80;2.30;;;;;;;;;;5007458;28;21870;-73
2023/02/06 14:25:33;;;;;;;9.18;2.13;;;;;;;;;;5007145;28;20222;-71
2023/02/06 14:28:07;;;;;;;9.77;2.22;;;;;;;;;;5009044;28;20703;-70
2023/02/06 14:30:48;;;;;;;8.80;2.17;;;;;;;;;;5013988;28;20190;-70
2023/02/06 14:33:31;;;;;;;8.77;2.15;;;;;;;;;;5013289;28;20257;-72
2023/02/06 14:36:06;;;;;;;9.65;2.00;;;;;;;;;;5007554;28;20200;-72